createdAt,value
2022-11-24T00:01:15.490Z,93.20
2022-11-24T00:03:43.480Z,92.20
2022-11-24T00:06:13.038Z,93.00
2022-11-24T00:08:42.228Z,92.50
2022-11-24T00:11:11.646Z,92.30
2022-11-24T00:13:40.155Z,92.20
2022-11-24T00:16:12.070Z,92.20
2022-11-24T00:18:41.229Z,93.00
2022-11-24T00:21:09.428Z,93.00
2022-11-24T00:23:38.109Z,93.60
2022-11-24T00:26:08.543Z,93.10
2022-11-24T00:28:37.122Z,93.50
2022-11-24T00:31:06.305Z,93.40
2022-11-24T00:33:35.540Z,92.70
2022-11-24T00:36:03.366Z,92.50
2022-11-24T00:38:31.232Z,91.60
2022-11-24T00:40:59.093Z,91.40
2022-11-24T00:43:26.951Z,91.80
2022-11-24T00:45:54.875Z,92.10
2022-11-24T00:48:23.339Z,90.90
2022-11-24T00:50:58.592Z,90.70
2022-11-24T00:53:27.055Z,91.10
2022-11-24T00:55:55.376Z,91.60
2022-11-24T00:58:23.808Z,92.50
2022-11-24T01:00:52.146Z,93.60
2022-11-24T01:03:21.267Z,93.90
2022-11-24T01:05:49.433Z,94.70
2022-11-24T01:08:18.594Z,94.60
2022-11-24T01:10:46.434Z,95.40
2022-11-24T01:13:14.326Z,95.10
2022-11-24T01:15:42.168Z,95.10
2022-11-24T01:18:11.347Z,96.00
2022-11-24T01:20:39.244Z,95.50
2022-11-24T01:23:07.670Z,94.30
2022-11-24T01:25:40.523Z,94.00
2022-11-24T01:28:08.337Z,92.80
2022-11-24T01:30:36.203Z,92.50
2022-11-24T01:33:04.126Z,91.70
2022-11-24T01:35:31.964Z,90.50
2022-11-24T01:37:59.767Z,90.30
2022-11-24T01:40:27.560Z,90.20
2022-11-24T01:42:56.778Z,89.80
2022-11-24T01:45:33.611Z,89.60
2022-11-24T01:48:05.541Z,89.90
2022-11-24T01:50:35.934Z,90.20
2022-11-24T01:53:04.353Z,90.10
2022-11-24T01:55:35.884Z,89.80
2022-11-24T01:58:08.952Z,89.60
2022-11-24T02:00:39.477Z,89.90
2022-11-24T02:03:08.145Z,89.20
2022-11-24T02:05:42.596Z,89.40
2022-11-24T02:08:18.342Z,90.00
2022-11-24T02:10:47.204Z,90.30
2022-11-24T02:13:17.121Z,91.20
2022-11-24T02:15:45.036Z,91.90
2022-11-24T02:18:12.984Z,93.10
2022-11-24T02:20:40.842Z,93.10
2022-11-24T02:23:18.279Z,93.30
2022-11-24T02:25:56.975Z,92.90
2022-11-24T02:28:29.910Z,94.10
2022-11-24T02:30:59.423Z,93.80
2022-11-24T02:33:28.138Z,94.50
2022-11-24T02:35:56.013Z,94.20
2022-11-24T02:38:32.198Z,93.10
2022-11-24T02:41:03.687Z,93.30
2022-11-24T02:43:37.726Z,95.10
2022-11-24T02:46:05.797Z,95.70
2022-11-24T02:48:33.748Z,95.70
2022-11-24T02:51:01.570Z,95.80
2022-11-24T02:53:29.416Z,97.60
2022-11-24T02:55:57.437Z,99.00
2022-11-24T02:58:25.298Z,97.70
2022-11-24T03:00:55.140Z,98.30
2022-11-24T03:03:22.991Z,96.60
2022-11-24T03:05:51.114Z,95.60
2022-11-24T03:08:19.003Z,93.40
2022-11-24T03:10:46.879Z,93.60
2022-11-24T03:13:14.862Z,92.50
2022-11-24T03:15:42.729Z,91.30
2022-11-24T03:18:11.997Z,90.10
2022-11-24T03:20:39.847Z,90.10
2022-11-24T03:23:07.660Z,89.70
2022-11-24T03:25:35.458Z,89.80
2022-11-24T03:28:03.318Z,89.70
2022-11-24T03:30:31.374Z,89.50
2022-11-24T03:32:59.181Z,91.30
2022-11-24T03:35:28.351Z,91.50
2022-11-24T03:37:56.386Z,90.50
2022-11-24T03:40:24.240Z,91.10
2022-11-24T03:42:52.062Z,93.00
2022-11-24T03:45:44.982Z,92.20
2022-11-24T03:48:08.518Z,91.60
2022-11-24T03:50:37.716Z,91.10
2022-11-24T03:53:05.578Z,91.10
2022-11-24T03:55:33.406Z,89.90
2022-11-24T03:58:01.238Z,89.60
2022-11-24T04:00:29.297Z,88.50
2022-11-24T04:02:57.181Z,88.20
2022-11-24T04:05:25.887Z,88.30
2022-11-24T04:07:58.386Z,88.70
2022-11-24T04:10:26.466Z,88.70
2022-11-24T04:12:53.303Z,89.00
2022-11-24T04:15:21.807Z,88.70
2022-11-24T04:17:51.066Z,89.30
2022-11-24T04:20:19.210Z,89.60
2022-11-24T04:22:47.028Z,89.00
2022-11-24T04:25:17.424Z,87.70
2022-11-24T04:27:45.294Z,87.30
2022-11-24T04:30:13.512Z,87.00
2022-11-24T04:32:41.385Z,86.60
2022-11-24T04:35:09.981Z,86.90
2022-11-24T04:37:37.859Z,87.40
2022-11-24T04:40:07.255Z,86.90
2022-11-24T04:42:36.458Z,86.70
2022-11-24T04:45:04.857Z,86.50
2022-11-24T04:47:33.130Z,86.50
2022-11-24T04:50:01.094Z,86.10
2022-11-24T04:52:30.802Z,85.80
2022-11-24T04:54:58.650Z,85.90
2022-11-24T04:57:27.857Z,85.50
2022-11-24T04:59:57.043Z,85.90
2022-11-24T05:02:25.633Z,86.00
2022-11-24T05:04:53.470Z,86.10
2022-11-24T05:07:21.323Z,85.80
2022-11-24T05:10:06.957Z,85.30
2022-11-24T05:12:34.874Z,84.90
2022-11-24T05:15:05.482Z,84.50
2022-11-24T05:17:34.930Z,84.00
2022-11-24T05:20:02.898Z,83.80
2022-11-24T05:22:31.670Z,83.30
2022-11-24T05:24:59.765Z,82.00
2022-11-24T05:27:27.615Z,81.50
2022-11-24T05:29:55.473Z,81.00
2022-11-24T05:32:25.103Z,80.90
2022-11-24T05:34:53.885Z,81.40
2022-11-24T05:37:22.020Z,81.50
2022-11-24T05:39:49.850Z,81.60
2022-11-24T05:42:47.590Z,81.80
2022-11-24T05:45:17.509Z,82.00
2022-11-24T05:47:47.279Z,82.40
2022-11-24T05:50:16.826Z,82.50
2022-11-24T05:52:45.109Z,83.60
2022-11-24T05:55:14.609Z,83.90
2022-11-24T05:57:43.156Z,85.20
2022-11-24T06:00:12.256Z,85.10
2022-11-24T06:02:40.370Z,84.30
2022-11-24T06:05:10.167Z,84.50
2022-11-24T06:07:38.035Z,84.30
2022-11-24T06:10:06.587Z,84.50
2022-11-24T06:12:34.409Z,84.70
2022-11-24T06:15:02.245Z,84.30
2022-11-24T06:17:30.131Z,84.30
2022-11-24T06:19:58.063Z,83.70
2022-11-24T06:22:27.455Z,83.10
2022-11-24T06:24:55.275Z,83.40
2022-11-24T06:27:23.426Z,83.60
2022-11-24T06:29:51.291Z,82.60
2022-11-24T06:32:19.295Z,82.20
2022-11-24T06:34:47.100Z,82.30
2022-11-24T06:37:14.938Z,81.90
2022-11-24T06:39:44.126Z,81.90
2022-11-24T06:42:11.948Z,82.30
2022-11-24T06:44:39.849Z,82.00
2022-11-24T06:47:07.765Z,82.30
2022-11-24T06:49:35.622Z,82.70
2022-11-24T06:52:03.470Z,81.80
2022-11-24T06:54:31.473Z,81.50
2022-11-24T06:57:01.198Z,81.90
2022-11-24T06:59:29.145Z,82.30
2022-11-24T07:01:56.988Z,82.50
2022-11-24T07:04:24.832Z,82.50
2022-11-24T07:06:52.838Z,81.80
2022-11-24T07:09:20.761Z,81.40
2022-11-24T07:11:48.622Z,82.10
2022-11-24T07:14:19.125Z,82.00
2022-11-24T07:16:47.084Z,82.50
2022-11-24T07:19:17.002Z,82.60
2022-11-24T07:21:48.038Z,82.70
2022-11-24T07:24:15.876Z,83.20
2022-11-24T07:26:43.738Z,83.70
2022-11-24T07:29:11.591Z,83.80
2022-11-24T07:31:40.800Z,84.30
2022-11-24T07:34:08.715Z,85.80
2022-11-24T07:36:36.542Z,86.10
2022-11-24T07:39:07.161Z,86.00
2022-11-24T07:41:35.009Z,86.90
2022-11-24T07:44:02.939Z,87.40
2022-11-24T07:46:30.777Z,87.90
2022-11-24T07:48:59.958Z,88.30
2022-11-24T07:51:27.801Z,89.20
2022-11-24T07:53:55.663Z,90.10
2022-11-24T07:56:23.567Z,92.00
2022-11-24T07:58:53.100Z,94.30
2022-11-24T08:01:21.741Z,95.40
2022-11-24T08:03:49.732Z,95.90
2022-11-24T08:06:25.404Z,92.60
2022-11-24T08:08:54.235Z,93.10
2022-11-24T08:11:22.421Z,94.10
2022-11-24T08:13:50.253Z,95.30
2022-11-24T08:16:19.965Z,95.20
2022-11-24T08:18:50.831Z,95.20
2022-11-24T08:21:20.669Z,95.50
2022-11-24T08:23:48.541Z,95.20
2022-11-24T08:26:19.372Z,96.10
2022-11-24T08:28:48.850Z,97.30
2022-11-24T08:31:19.658Z,97.30
2022-11-24T08:33:48.345Z,96.20
2022-11-24T08:36:17.915Z,97.60
2022-11-24T08:38:48.928Z,96.60
2022-11-24T08:41:18.025Z,97.50
2022-11-24T08:43:45.915Z,97.80
2022-11-24T08:46:16.922Z,98.40
2022-11-24T08:48:50.068Z,99.20
2022-11-24T08:51:20.337Z,99.70
2022-11-24T08:53:49.679Z,99.90
2022-11-24T08:56:17.701Z,99.10
2022-11-24T08:58:45.612Z,99.40
2022-11-24T09:01:15.334Z,99.10
2022-11-24T09:03:49.961Z,97.10
2022-11-24T09:06:19.922Z,95.10
2022-11-24T09:08:49.125Z,94.70
2022-11-24T09:11:18.073Z,94.00
2022-11-24T09:13:46.455Z,94.00
2022-11-24T09:16:16.863Z,93.90
2022-11-24T09:18:45.549Z,93.70
2022-11-24T09:21:15.923Z,92.80
2022-11-24T09:23:44.663Z,93.40
2022-11-24T09:26:17.374Z,94.70
2022-11-24T09:28:45.773Z,94.40
2022-11-24T09:31:15.749Z,95.10
2022-11-24T09:33:45.441Z,96.30
2022-11-24T09:36:13.377Z,96.40
2022-11-24T09:38:41.590Z,96.10
2022-11-24T09:41:32.278Z,95.60
2022-11-24T09:44:07.282Z,95.40
2022-11-24T09:46:43.974Z,95.50
2022-11-24T09:49:17.813Z,94.40
2022-11-24T09:51:48.170Z,92.50
2022-11-24T09:54:21.584Z,92.70
2022-11-24T09:56:51.472Z,92.70
2022-11-24T09:59:21.858Z,91.70
2022-11-24T10:01:51.453Z,91.90
2022-11-24T10:04:21.878Z,93.00
2022-11-24T10:06:56.452Z,92.20
2022-11-24T10:09:44.416Z,91.10
2022-11-24T10:12:24.385Z,92.50
2022-11-24T10:15:05.243Z,94.20
2022-11-24T10:17:54.967Z,94.30
2022-11-24T10:20:31.851Z,95.00
2022-11-24T10:23:16.430Z,96.10
2022-11-24T10:25:51.126Z,98.50
2022-11-24T10:28:20.316Z,96.70
2022-11-24T10:30:48.235Z,98.00
2022-11-24T10:33:20.262Z,94.90
2022-11-24T10:35:54.406Z,90.30
2022-11-24T10:38:32.693Z,91.40
2022-11-24T10:41:08.738Z,89.90
2022-11-24T10:43:38.369Z,90.70
2022-11-24T10:46:16.637Z,88.10
2022-11-24T10:48:49.989Z,86.40
2022-11-24T10:51:42.648Z,87.20
2022-11-24T10:54:17.021Z,83.10
2022-11-24T10:56:46.812Z,84.30
2022-11-24T10:59:37.200Z,84.80
2022-11-24T11:02:31.349Z,84.40
2022-11-24T11:04:59.795Z,84.40
2022-11-24T11:07:27.988Z,84.00
2022-11-24T11:10:21.431Z,82.60
2022-11-24T11:12:49.383Z,83.90
2022-11-24T11:15:29.776Z,84.00
2022-11-24T11:18:01.223Z,84.20
2022-11-24T11:20:31.073Z,84.40
2022-11-24T11:23:01.370Z,85.30
2022-11-24T11:25:33.678Z,85.10
2022-11-24T11:28:26.222Z,85.70
2022-11-24T11:34:03.881Z,87.30
2022-11-24T11:36:34.548Z,88.00
2022-11-24T11:39:06.540Z,87.60
2022-11-24T11:41:37.331Z,79.70
2022-11-24T11:44:28.229Z,81.10
2022-11-24T11:46:59.563Z,82.70
2022-11-24T11:49:29.023Z,81.60
2022-11-24T11:52:29.647Z,80.80
2022-11-24T11:55:18.958Z,81.80
2022-11-24T11:57:56.184Z,82.30
2022-11-24T12:00:24.432Z,82.00
2022-11-24T12:03:19.387Z,81.20
2022-11-24T12:06:03.812Z,77.00
2022-11-24T12:09:11.565Z,76.60
2022-11-24T12:11:36.046Z,75.90
2022-11-24T12:14:23.045Z,76.50
2022-11-24T12:17:03.187Z,75.90
2022-11-24T12:19:46.317Z,76.30
2022-11-24T12:22:25.695Z,75.60
2022-11-24T12:24:59.103Z,75.00
2022-11-24T12:27:40.036Z,75.10
2022-11-24T12:30:13.555Z,73.30
2022-11-24T12:33:00.921Z,75.30
2022-11-24T12:35:34.283Z,72.60
2022-11-24T12:38:11.852Z,71.50
2022-11-24T12:41:18.110Z,72.50
2022-11-24T12:43:49.988Z,71.40
2022-11-24T12:46:22.255Z,71.00
2022-11-24T12:48:58.052Z,72.20
2022-11-24T12:51:30.668Z,71.70
2022-11-24T12:54:02.667Z,71.80
2022-11-24T12:56:38.407Z,71.60
2022-11-24T12:59:22.554Z,70.40
2022-11-24T13:01:54.462Z,71.70
2022-11-24T13:04:35.332Z,70.10
2022-11-24T13:07:10.843Z,70.90
2022-11-24T13:10:18.614Z,69.70
2022-11-24T13:12:57.016Z,70.20
2022-11-24T13:15:45.059Z,69.60
2022-11-24T13:18:45.036Z,68.70
2022-11-24T13:21:32.062Z,68.70
2022-11-24T13:24:01.283Z,69.20
2022-11-24T13:26:32.933Z,68.30
2022-11-24T13:29:18.026Z,69.60
2022-11-24T13:31:52.176Z,68.70
2022-11-24T13:35:03.781Z,66.60
2022-11-24T13:37:51.411Z,65.80
2022-11-24T13:41:20.900Z,68.00
2022-11-24T13:43:38.794Z,66.70
2022-11-24T13:46:11.051Z,68.10
2022-11-24T13:49:01.347Z,68.00
2022-11-24T13:51:29.340Z,66.40
2022-11-24T13:54:00.797Z,67.00
2022-11-24T13:56:31.451Z,66.70
2022-11-24T13:59:04.051Z,67.20
2022-11-24T14:01:33.213Z,69.10
2022-11-24T14:04:33.472Z,69.30
2022-11-24T14:07:09.790Z,70.30
2022-11-24T14:09:43.825Z,70.70
2022-11-24T14:12:16.890Z,70.90
2022-11-24T14:14:48.163Z,72.50
2022-11-24T14:17:19.260Z,72.40
2022-11-24T14:19:48.868Z,73.10
2022-11-24T14:22:19.086Z,73.70
2022-11-24T14:24:53.001Z,74.10
2022-11-24T14:27:27.314Z,74.60
2022-11-24T14:29:58.583Z,74.80
2022-11-24T14:32:26.751Z,75.40
2022-11-24T14:34:55.554Z,75.50
2022-11-24T14:37:23.548Z,76.10
2022-11-24T14:39:51.419Z,75.40
2022-11-24T14:42:21.834Z,74.90
2022-11-24T14:44:54.059Z,74.90
2022-11-24T14:47:31.185Z,74.40
2022-11-24T14:50:10.016Z,74.50
2022-11-24T14:52:50.647Z,74.90
2022-11-24T14:55:30.085Z,75.30
2022-11-24T14:57:58.484Z,75.70
2022-11-24T15:00:29.807Z,75.20
2022-11-24T15:03:16.048Z,75.10
2022-11-24T15:05:53.274Z,74.80
2022-11-24T15:08:23.401Z,75.00
2022-11-24T15:10:58.145Z,75.80
2022-11-24T15:13:27.004Z,76.80
2022-11-24T15:16:02.077Z,77.60
2022-11-24T15:18:38.382Z,78.40
2022-11-24T15:21:06.567Z,79.00
2022-11-24T15:23:35.233Z,79.30
2022-11-24T15:26:30.598Z,79.30
2022-11-24T15:29:00.007Z,80.00
2022-11-24T15:31:31.217Z,80.30
2022-11-24T15:34:00.457Z,79.80
2022-11-24T15:36:28.312Z,80.20
2022-11-24T15:38:56.143Z,80.70
2022-11-24T15:41:31.906Z,81.00
2022-11-24T15:44:00.184Z,81.80
2022-11-24T15:46:28.361Z,82.30
2022-11-24T15:48:57.167Z,82.20
2022-11-24T15:51:27.778Z,82.80
2022-11-24T15:54:01.032Z,83.20
2022-11-24T15:56:33.060Z,83.30
2022-11-24T15:59:01.252Z,83.00
2022-11-24T16:01:32.067Z,81.90
2022-11-24T16:04:00.116Z,81.20
2022-11-24T16:06:29.304Z,80.80
2022-11-24T16:08:58.087Z,80.60
2022-11-24T16:11:26.157Z,80.30
2022-11-24T16:13:54.682Z,80.30
2022-11-24T16:16:24.671Z,80.70
2022-11-24T16:18:52.763Z,81.10
2022-11-24T16:21:20.600Z,81.60
2022-11-24T16:23:49.756Z,81.70
2022-11-24T16:26:17.570Z,81.90
2022-11-24T16:28:45.814Z,81.30
2022-11-24T16:31:15.686Z,81.30
2022-11-24T16:33:44.776Z,80.70
2022-11-24T16:36:12.909Z,81.00
2022-11-24T16:38:40.803Z,81.10
2022-11-24T16:41:11.005Z,82.00
2022-11-24T16:43:39.113Z,82.60
2022-11-24T16:46:19.455Z,82.30
2022-11-24T16:48:48.724Z,82.00
2022-11-24T16:51:17.464Z,81.80
2022-11-24T16:53:45.703Z,81.90
2022-11-24T16:56:16.475Z,82.50
2022-11-24T16:58:44.440Z,82.40
2022-11-24T17:01:14.285Z,82.60
2022-11-24T17:03:42.849Z,82.00
2022-11-24T17:06:13.020Z,81.60
2022-11-24T17:08:41.625Z,81.00
2022-11-24T17:11:10.307Z,81.10
2022-11-24T17:13:40.951Z,81.30
2022-11-24T17:16:11.406Z,81.00
2022-11-24T17:18:39.881Z,81.30
2022-11-24T17:21:10.248Z,81.60
2022-11-24T17:23:38.639Z,81.20
2022-11-24T17:26:08.392Z,81.60
2022-11-24T17:28:36.934Z,81.90
2022-11-24T17:31:09.883Z,82.00
2022-11-24T17:33:38.087Z,82.60
2022-11-24T17:36:07.183Z,82.80
2022-11-24T17:38:36.030Z,84.10
2022-11-24T17:41:05.034Z,83.40
2022-11-24T17:43:32.974Z,83.00
2022-11-24T17:46:02.653Z,83.40
2022-11-24T17:48:32.306Z,83.30
2022-11-24T17:51:01.465Z,82.60
2022-11-24T17:53:29.820Z,82.80
2022-11-24T17:56:01.236Z,82.10
2022-11-24T17:58:29.433Z,82.40
2022-11-24T18:00:58.392Z,82.60
2022-11-24T18:03:28.675Z,82.50
2022-11-24T18:05:57.949Z,83.00
2022-11-24T18:08:25.794Z,83.90
2022-11-24T18:10:53.611Z,83.60
2022-11-24T18:13:48.402Z,84.30
2022-11-24T18:16:10.940Z,84.40
2022-11-24T18:18:40.384Z,84.60
2022-11-24T18:21:13.867Z,84.90
2022-11-24T18:23:42.074Z,85.00
2022-11-24T18:26:12.883Z,85.30
2022-11-24T18:28:40.732Z,85.50
2022-11-24T18:31:10.769Z,86.60
2022-11-24T18:33:39.611Z,87.20
2022-11-24T18:36:11.285Z,86.60
2022-11-24T18:38:39.183Z,87.60
2022-11-24T18:41:07.672Z,87.80
2022-11-24T18:43:38.120Z,88.50
2022-11-24T18:46:07.862Z,88.90
2022-11-24T18:48:35.794Z,88.90
2022-11-24T18:51:04.193Z,89.30
2022-11-24T18:53:33.363Z,89.20
2022-11-24T18:56:03.299Z,88.70
2022-11-24T18:58:32.878Z,90.00
2022-11-24T19:01:08.227Z,90.60
2022-11-24T19:03:42.382Z,90.90
2022-11-24T19:06:16.880Z,91.30
2022-11-24T19:08:46.459Z,92.20
2022-11-24T19:11:18.515Z,93.10
2022-11-24T19:13:47.583Z,93.80
2022-11-24T19:16:16.385Z,93.40
2022-11-24T19:18:47.628Z,92.90
2022-11-24T19:21:20.349Z,93.10
2022-11-24T19:23:49.626Z,92.80
2022-11-24T19:26:17.451Z,93.80
2022-11-24T19:28:45.571Z,93.10
2022-11-24T19:31:15.041Z,92.10
2022-11-24T19:33:43.284Z,92.90
2022-11-24T19:36:13.285Z,93.20
2022-11-24T19:38:41.898Z,93.80
2022-11-24T19:41:13.123Z,95.50
2022-11-24T19:43:41.986Z,96.40
2022-11-24T19:46:11.641Z,96.20
2022-11-24T19:48:40.765Z,96.90
2022-11-24T19:51:12.895Z,97.40
2022-11-24T19:53:40.802Z,98.00
2022-11-24T19:56:10.355Z,98.10
2022-11-24T19:58:40.353Z,99.90
2022-11-24T20:01:08.987Z,99.90
2022-11-24T20:03:37.778Z,99.90
2022-11-24T20:06:06.637Z,99.90
2022-11-24T20:08:36.398Z,99.90
2022-11-24T20:11:05.406Z,99.90
2022-11-24T20:13:34.704Z,99.90
2022-11-24T20:16:09.986Z,99.90
2022-11-24T20:18:41.916Z,99.90
2022-11-24T20:21:12.026Z,99.90
2022-11-24T20:23:40.156Z,99.90
2022-11-24T20:26:10.132Z,99.90
2022-11-24T20:28:38.304Z,99.90
2022-11-24T20:31:09.489Z,99.90
2022-11-24T20:33:38.157Z,99.90
2022-11-24T20:36:08.580Z,99.90
2022-11-24T20:38:37.199Z,99.90
2022-11-24T20:41:09.205Z,99.90
2022-11-24T20:43:37.593Z,99.90
2022-11-24T20:46:08.222Z,99.90
2022-11-24T20:48:36.764Z,99.90
2022-11-24T20:51:05.853Z,99.90
2022-11-24T20:53:33.799Z,99.90
2022-11-24T20:56:06.092Z,99.90
2022-11-24T20:58:34.839Z,99.90
2022-11-24T21:01:08.516Z,99.90
2022-11-24T21:03:41.410Z,99.90
2022-11-24T21:06:12.636Z,99.90
2022-11-24T21:08:41.832Z,99.90
2022-11-24T21:11:11.419Z,99.90
2022-11-24T21:13:40.872Z,99.90
2022-11-24T21:16:17.994Z,99.90
2022-11-24T21:18:47.242Z,99.90
2022-11-24T21:21:15.734Z,99.90
2022-11-24T21:23:45.083Z,99.90
2022-11-24T21:26:16.945Z,99.90
2022-11-24T21:28:46.511Z,99.90
2022-11-24T21:31:17.112Z,99.90
2022-11-24T21:33:46.271Z,99.90
2022-11-24T21:36:15.527Z,99.90
2022-11-24T21:38:43.780Z,99.90
2022-11-24T21:41:13.906Z,99.90
2022-11-24T21:43:41.804Z,99.90
2022-11-24T21:46:11.588Z,99.90
2022-11-24T21:48:42.032Z,99.90
2022-11-24T21:51:13.108Z,99.90
2022-11-24T21:53:41.275Z,99.90
2022-11-24T21:56:12.936Z,99.90
2022-11-24T21:58:46.594Z,99.90
2022-11-24T22:01:15.792Z,99.90
2022-11-24T22:03:45.763Z,99.90
2022-11-24T22:06:14.307Z,99.90
2022-11-24T22:08:42.191Z,99.90
2022-11-24T22:11:13.198Z,99.90
2022-11-24T22:13:41.669Z,99.90
2022-11-24T22:16:11.550Z,99.90
2022-11-24T22:18:40.976Z,99.90
2022-11-24T22:21:14.623Z,99.90
2022-11-24T22:23:42.801Z,99.90
2022-11-24T22:26:13.334Z,99.90
2022-11-24T22:28:41.635Z,99.90
2022-11-24T22:31:11.751Z,99.90
2022-11-24T22:33:39.838Z,99.90
2022-11-24T22:36:08.404Z,99.90
2022-11-24T22:38:37.586Z,99.90
2022-11-24T22:41:07.737Z,99.90
2022-11-24T22:43:36.822Z,99.90
2022-11-24T22:46:05.964Z,99.90
2022-11-24T22:48:34.151Z,99.90
2022-11-24T22:51:03.378Z,99.90
2022-11-24T22:53:31.327Z,99.90
2022-11-24T22:56:03.537Z,99.90
2022-11-24T22:58:31.805Z,99.90
2022-11-24T23:01:05.111Z,99.90
2022-11-24T23:03:33.286Z,99.90
2022-11-24T23:06:01.776Z,99.90
2022-11-24T23:08:29.842Z,99.90
2022-11-24T23:11:03.137Z,99.90
2022-11-24T23:13:31.305Z,99.90
2022-11-24T23:16:03.365Z,99.90
2022-11-24T23:18:31.345Z,99.90
2022-11-24T23:21:05.803Z,99.90
2022-11-24T23:23:33.763Z,99.90
2022-11-24T23:26:03.535Z,99.90
2022-11-24T23:28:31.786Z,99.90
2022-11-24T23:31:03.914Z,99.90
2022-11-24T23:33:32.595Z,99.90
2022-11-24T23:36:02.307Z,99.90
2022-11-24T23:38:32.656Z,99.90
2022-11-24T23:41:01.674Z,99.90
2022-11-24T23:43:31.059Z,99.90
2022-11-24T23:46:03.905Z,99.90
2022-11-24T23:48:32.247Z,99.90
2022-11-24T23:51:05.374Z,99.90
2022-11-24T23:53:33.664Z,99.90
2022-11-24T23:56:02.008Z,99.90
2022-11-24T23:58:31.998Z,99.90
